Adrian, Illinois
Current Conditions -  °F | °C
As of 12:15 PM on Sunday 25 Jan 2015 (Local Time) from KFSW Reporting Station
Light Snow Light Snow  
Wind Chill: 23°   Ceiling: 1300
Heat Index: 34°   Visibility: 4mi
Dew Point: 32°   Wind: 17mph
Humidity: 93%   Direction: 30°NNE
Pressure: 29.76"   Gusts: 25mph
Location:  40.52°N, 91.17°W
Report Text: KFSW 251815Z AUTO 03015G22KT 4SM -SN OVC013 01/00 A2976 RMK AO2 P0001
Loading
Personal Weather Stations






























Interactive Weather Map New forecast layout! Learn more

10-Day Weather Forecast

Advertisements
Track Severe Weather on mobile